sensor_id;sensor_type;location;lat;lon;timestamp;temperature;humidity
18882;DHT22;9573;50.948;11.600;2022-12-18T05:22:36;-11.60;99.90
18882;DHT22;9573;50.948;11.600;2022-12-18T05:25:04;-11.70;99.90
18882;DHT22;9573;50.948;11.600;2022-12-18T05:27:31;-11.70;99.90
18882;DHT22;9573;50.948;11.600;2022-12-18T05:29:58;-11.50;99.90
18882;DHT22;9573;50.948;11.600;2022-12-18T05:32:25;-11.30;99.90
18882;DHT22;9573;50.948;11.600;2022-12-18T05:34:52;-11.20;99.90
18882;DHT22;9573;50.948;11.600;2022-12-18T05:37:19;-11.10;99.90
18882;DHT22;9573;50.948;11.600;2022-12-18T05:39:48;-10.90;99.90
18882;DHT22;9573;50.948;11.600;2022-12-18T05:42:15;-10.90;99.90
18882;DHT22;9573;50.948;11.600;2022-12-18T05:44:43;-10.80;99.90
18882;DHT22;9573;50.948;11.600;2022-12-18T05:47:10;-10.80;99.90
18882;DHT22;9573;50.948;11.600;2022-12-18T05:49:37;-10.80;99.90
18882;DHT22;9573;50.948;11.600;2022-12-18T05:52:04;-10.80;99.90
18882;DHT22;9573;50.948;11.600;2022-12-18T05:54:32;-10.80;99.90
18882;DHT22;9573;50.948;11.600;2022-12-18T05:57:00;-10.80;99.90
18882;DHT22;9573;50.948;11.600;2022-12-18T05:59:27;-10.80;99.90
18882;DHT22;9573;50.948;11.600;2022-12-18T06:01:54;-10.80;99.90
18882;DHT22;9573;50.948;11.600;2022-12-18T06:04:21;-10.80;99.90
18882;DHT22;9573;50.948;11.600;2022-12-18T06:06:49;-10.80;99.90
18882;DHT22;9573;50.948;11.600;2022-12-18T06:09:16;-10.80;99.90
18882;DHT22;9573;50.948;11.600;2022-12-18T06:11:43;-10.80;99.90
18882;DHT22;9573;50.948;11.600;2022-12-18T06:14:11;-10.80;99.90
18882;DHT22;9573;50.948;11.600;2022-12-18T06:16:39;-10.80;99.90
18882;DHT22;9573;50.948;11.600;2022-12-18T06:19:06;-10.70;99.90
18882;DHT22;9573;50.948;11.600;2022-12-18T06:21:34;-10.80;99.90
18882;DHT22;9573;50.948;11.600;2022-12-18T06:24:01;-10.80;99.90
18882;DHT22;9573;50.948;11.600;2022-12-18T06:26:28;-10.80;99.90
18882;DHT22;9573;50.948;11.600;2022-12-18T06:28:55;-10.90;99.90
18882;DHT22;9573;50.948;11.600;2022-12-18T06:31:24;-11.00;99.90
18882;DHT22;9573;50.948;11.600;2022-12-18T06:33:52;-11.00;99.90
18882;DHT22;9573;50.948;11.600;2022-12-18T06:36:19;-11.00;99.90
18882;DHT22;9573;50.948;11.600;2022-12-18T06:38:47;-11.00;99.90
18882;DHT22;9573;50.948;11.600;2022-12-18T06:41:16;-11.00;99.90
18882;DHT22;9573;50.948;11.600;2022-12-18T06:43:44;-11.00;99.90
18882;DHT22;9573;50.948;11.600;2022-12-18T06:46:11;-10.90;99.90
18882;DHT22;9573;50.948;11.600;2022-12-18T06:48:40;-11.00;99.90
18882;DHT22;9573;50.948;11.600;2022-12-18T06:51:07;-11.00;99.90
18882;DHT22;9573;50.948;11.600;2022-12-18T06:53:35;-11.00;99.90
18882;DHT22;9573;50.948;11.600;2022-12-18T06:56:03;-11.00;99.90
18882;DHT22;9573;50.948;11.600;2022-12-18T06:58:31;-10.90;99.90
18882;DHT22;9573;50.948;11.600;2022-12-18T07:01:00;-10.90;99.90
18882;DHT22;9573;50.948;11.600;2022-12-18T07:03:27;-10.90;99.90
18882;DHT22;9573;50.948;11.600;2022-12-18T07:05:56;-10.80;99.90
18882;DHT22;9573;50.948;11.600;2022-12-18T07:08:23;-10.80;99.90
18882;DHT22;9573;50.948;11.600;2022-12-18T07:10:50;-10.80;99.90
18882;DHT22;9573;50.948;11.600;2022-12-18T07:13:18;-10.80;99.90
18882;DHT22;9573;50.948;11.600;2022-12-18T07:15:45;-10.70;99.90
18882;DHT22;9573;50.948;11.600;2022-12-18T07:18:12;-10.70;99.90
18882;DHT22;9573;50.948;11.600;2022-12-18T07:20:39;-10.70;99.90
18882;DHT22;9573;50.948;11.600;2022-12-18T07:23:08;-10.70;99.90
18882;DHT22;9573;50.948;11.600;2022-12-18T07:25:35;-10.70;99.90
18882;DHT22;9573;50.948;11.600;2022-12-18T07:28:02;-10.60;99.90
18882;DHT22;9573;50.948;11.600;2022-12-18T07:30:30;-10.60;99.90
18882;DHT22;9573;50.948;11.600;2022-12-18T07:32:57;-10.50;99.90
18882;DHT22;9573;50.948;11.600;2022-12-18T07:35:24;-10.50;99.90
18882;DHT22;9573;50.948;11.600;2022-12-18T07:37:51;-10.40;99.90
18882;DHT22;9573;50.948;11.600;2022-12-18T07:40:20;-10.40;99.90
18882;DHT22;9573;50.948;11.600;2022-12-18T07:42:47;-10.40;99.90
18882;DHT22;9573;50.948;11.600;2022-12-18T07:45:14;-10.40;99.90
18882;DHT22;9573;50.948;11.600;2022-12-18T07:47:41;-10.30;99.90
18882;DHT22;9573;50.948;11.600;2022-12-18T07:50:08;-10.30;99.90
18882;DHT22;9573;50.948;11.600;2022-12-18T07:52:36;-10.20;99.90
18882;DHT22;9573;50.948;11.600;2022-12-18T07:55:03;-10.10;99.90
18882;DHT22;9573;50.948;11.600;2022-12-18T07:57:33;-10.00;99.90
18882;DHT22;9573;50.948;11.600;2022-12-18T08:00:00;-9.90;99.90
18882;DHT22;9573;50.948;11.600;2022-12-18T08:02:30;-8.30;99.90
18882;DHT22;9573;50.948;11.600;2022-12-18T08:04:57;-9.70;99.90
18882;DHT22;9573;50.948;11.600;2022-12-18T08:07:24;-9.60;99.90
18882;DHT22;9573;50.948;11.600;2022-12-18T08:09:51;-9.10;99.90
18882;DHT22;9573;50.948;11.600;2022-12-18T08:12:19;-9.50;99.90
18882;DHT22;9573;50.948;11.600;2022-12-18T08:14:47;-9.40;99.90
18882;DHT22;9573;50.948;11.600;2022-12-18T08:17:14;-8.70;99.90
18882;DHT22;9573;50.948;11.600;2022-12-18T08:19:41;-9.10;99.90
18882;DHT22;9573;50.948;11.600;2022-12-18T08:22:08;-8.90;99.90
18882;DHT22;9573;50.948;11.600;2022-12-18T08:24:35;-8.80;99.90
18882;DHT22;9573;50.948;11.600;2022-12-18T08:27:02;-8.80;99.90
18882;DHT22;9573;50.948;11.600;2022-12-18T08:29:30;-8.70;99.90
18882;DHT22;9573;50.948;11.600;2022-12-18T08:31:58;-8.60;99.90
18882;DHT22;9573;50.948;11.600;2022-12-18T08:34:26;-8.50;99.90
18882;DHT22;9573;50.948;11.600;2022-12-18T08:36:53;-8.40;99.90
18882;DHT22;9573;50.948;11.600;2022-12-18T08:39:20;-8.30;99.90
18882;DHT22;9573;50.948;11.600;2022-12-18T08:41:47;-8.10;99.90
18882;DHT22;9573;50.948;11.600;2022-12-18T08:44:34;-8.00;99.90
18882;DHT22;9573;50.948;11.600;2022-12-18T08:47:05;-7.90;99.90
18882;DHT22;9573;50.948;11.600;2022-12-18T08:49:32;-7.80;99.90
18882;DHT22;9573;50.948;11.600;2022-12-18T08:51:59;-6.90;99.90
18882;DHT22;9573;50.948;11.600;2022-12-18T08:54:28;-3.90;99.90
18882;DHT22;9573;50.948;11.600;2022-12-18T08:56:55;-0.80;99.90
18882;DHT22;9573;50.948;11.600;2022-12-18T08:59:22;1.40;99.90
18882;DHT22;9573;50.948;11.600;2022-12-18T09:01:49;2.60;99.90
18882;DHT22;9573;50.948;11.600;2022-12-18T09:04:18;2.90;99.90
18882;DHT22;9573;50.948;11.600;2022-12-18T09:06:45;2.90;99.90
18882;DHT22;9573;50.948;11.600;2022-12-18T09:09:12;2.90;99.90
18882;DHT22;9573;50.948;11.600;2022-12-18T09:11:40;2.90;99.90
18882;DHT22;9573;50.948;11.600;2022-12-18T09:14:07;2.30;99.90
18882;DHT22;9573;50.948;11.600;2022-12-18T09:16:36;1.60;99.90
18882;DHT22;9573;50.948;11.600;2022-12-18T09:19:04;1.60;99.90
18882;DHT22;9573;50.948;11.600;2022-12-18T09:21:34;1.70;99.90
18882;DHT22;9573;50.948;11.600;2022-12-18T09:24:05;2.00;99.90
18882;DHT22;9573;50.948;11.600;2022-12-18T09:26:32;2.20;99.90
18882;DHT22;9573;50.948;11.600;2022-12-18T09:28:59;1.80;99.90
18882;DHT22;9573;50.948;11.600;2022-12-18T09:31:26;1.10;99.90
18882;DHT22;9573;50.948;11.600;2022-12-18T09:33:55;0.20;99.90
18882;DHT22;9573;50.948;11.600;2022-12-18T09:36:22;0.50;99.90
18882;DHT22;9573;50.948;11.600;2022-12-18T09:38:50;0.50;99.90
18882;DHT22;9573;50.948;11.600;2022-12-18T09:41:39;0.50;99.90
18882;DHT22;9573;50.948;11.600;2022-12-18T09:44:21;0.00;99.90
18882;DHT22;9573;50.948;11.600;2022-12-18T09:46:54;-0.30;99.90
18882;DHT22;9573;50.948;11.600;2022-12-18T09:49:30;-0.60;99.90
18882;DHT22;9573;50.948;11.600;2022-12-18T09:52:02;-1.00;99.90
18882;DHT22;9573;50.948;11.600;2022-12-18T09:54:36;-1.40;99.90
18882;DHT22;9573;50.948;11.600;2022-12-18T09:57:05;-1.60;99.90
18882;DHT22;9573;50.948;11.600;2022-12-18T09:59:36;-1.70;99.90
18882;DHT22;9573;50.948;11.600;2022-12-18T10:02:16;-1.40;99.90
18882;DHT22;9573;50.948;11.600;2022-12-18T10:04:49;-0.70;99.90
18882;DHT22;9573;50.948;11.600;2022-12-18T10:07:27;0.40;99.90
18882;DHT22;9573;50.948;11.600;2022-12-18T10:10:04;1.00;99.90
18882;DHT22;9573;50.948;11.600;2022-12-18T10:12:40;1.30;99.90
18882;DHT22;9573;50.948;11.600;2022-12-18T10:15:15;1.30;99.90
18882;DHT22;9573;50.948;11.600;2022-12-18T10:17:50;2.00;99.90
18882;DHT22;9573;50.948;11.600;2022-12-18T10:20:27;3.30;99.90
18882;DHT22;9573;50.948;11.600;2022-12-18T10:23:02;4.50;99.90
18882;DHT22;9573;50.948;11.600;2022-12-18T10:25:38;5.80;97.60
18882;DHT22;9573;50.948;11.600;2022-12-18T10:28:13;6.90;95.00
18882;DHT22;9573;50.948;11.600;2022-12-18T10:30:42;7.80;91.60
18882;DHT22;9573;50.948;11.600;2022-12-18T10:33:12;8.30;89.80
18882;DHT22;9573;50.948;11.600;2022-12-18T10:35:41;8.70;85.90
18882;DHT22;9573;50.948;11.600;2022-12-18T10:38:21;8.90;83.00
18882;DHT22;9573;50.948;11.600;2022-12-18T10:40:54;8.50;81.50
18882;DHT22;9573;50.948;11.600;2022-12-18T10:43:24;8.60;79.80
18882;DHT22;9573;50.948;11.600;2022-12-18T10:46:08;8.50;79.80
18882;DHT22;9573;50.948;11.600;2022-12-18T10:48:53;7.80;78.20
18882;DHT22;9573;50.948;11.600;2022-12-18T10:51:24;7.20;81.10
18882;DHT22;9573;50.948;11.600;2022-12-18T10:53:55;6.60;83.60
18882;DHT22;9573;50.948;11.600;2022-12-18T10:56:27;6.60;85.10
18882;DHT22;9573;50.948;11.600;2022-12-18T10:59:00;7.00;84.40
18882;DHT22;9573;50.948;11.600;2022-12-18T11:01:31;7.60;82.30
18882;DHT22;9573;50.948;11.600;2022-12-18T11:04:18;8.00;81.10
18882;DHT22;9573;50.948;11.600;2022-12-18T11:06:55;8.40;80.20
18882;DHT22;9573;50.948;11.600;2022-12-18T11:09:25;9.10;77.80
18882;DHT22;9573;50.948;11.600;2022-12-18T11:11:56;9.60;76.20
18882;DHT22;9573;50.948;11.600;2022-12-18T11:14:26;9.90;74.50
18882;DHT22;9573;50.948;11.600;2022-12-18T11:16:55;10.00;73.30
18882;DHT22;9573;50.948;11.600;2022-12-18T11:19:30;10.10;71.40
18882;DHT22;9573;50.948;11.600;2022-12-18T11:22:00;9.80;71.00
18882;DHT22;9573;50.948;11.600;2022-12-18T11:24:31;9.40;71.10
18882;DHT22;9573;50.948;11.600;2022-12-18T11:27:03;9.30;71.40
18882;DHT22;9573;50.948;11.600;2022-12-18T11:29:34;9.10;71.70
18882;DHT22;9573;50.948;11.600;2022-12-18T11:32:33;8.90;72.60
18882;DHT22;9573;50.948;11.600;2022-12-18T11:35:10;9.10;73.30
18882;DHT22;9573;50.948;11.600;2022-12-18T11:37:43;9.10;73.00
18882;DHT22;9573;50.948;11.600;2022-12-18T11:40:15;9.50;72.80
18882;DHT22;9573;50.948;11.600;2022-12-18T11:42:50;9.80;73.10
18882;DHT22;9573;50.948;11.600;2022-12-18T11:45:27;10.10;73.10
18882;DHT22;9573;50.948;11.600;2022-12-18T11:48:02;10.50;71.50
18882;DHT22;9573;50.948;11.600;2022-12-18T11:50:38;10.70;71.30
18882;DHT22;9573;50.948;11.600;2022-12-18T11:53:11;10.90;71.60
18882;DHT22;9573;50.948;11.600;2022-12-18T11:55:43;11.10;68.90
18882;DHT22;9573;50.948;11.600;2022-12-18T11:58:27;11.00;68.90
18882;DHT22;9573;50.948;11.600;2022-12-18T12:01:12;10.20;68.60
18882;DHT22;9573;50.948;11.600;2022-12-18T12:04:03;9.40;71.80
18882;DHT22;9573;50.948;11.600;2022-12-18T12:06:47;9.50;72.30
18882;DHT22;9573;50.948;11.600;2022-12-18T12:09:25;9.80;72.00
18882;DHT22;9573;50.948;11.600;2022-12-18T12:12:07;9.90;71.30
18882;DHT22;9573;50.948;11.600;2022-12-18T12:14:50;9.50;71.20
18882;DHT22;9573;50.948;11.600;2022-12-18T12:17:27;8.70;72.10
18882;DHT22;9573;50.948;11.600;2022-12-18T12:20:04;8.10;75.10
18882;DHT22;9573;50.948;11.600;2022-12-18T12:22:40;7.40;76.80
18882;DHT22;9573;50.948;11.600;2022-12-18T12:25:21;7.50;78.40
18882;DHT22;9573;50.948;11.600;2022-12-18T12:28:05;7.70;77.90
18882;DHT22;9573;50.948;11.600;2022-12-18T12:30:47;7.40;78.40
18882;DHT22;9573;50.948;11.600;2022-12-18T12:33:27;6.90;79.40
18882;DHT22;9573;50.948;11.600;2022-12-18T12:36:07;6.70;80.50
18882;DHT22;9573;50.948;11.600;2022-12-18T12:38:41;6.40;80.50
18882;DHT22;9573;50.948;11.600;2022-12-18T12:41:13;6.30;81.50
18882;DHT22;9573;50.948;11.600;2022-12-18T12:43:58;6.00;82.60
18882;DHT22;9573;50.948;11.600;2022-12-18T12:46:32;5.70;83.50
18882;DHT22;9573;50.948;11.600;2022-12-18T12:49:03;5.50;84.20
18882;DHT22;9573;50.948;11.600;2022-12-18T12:51:37;5.30;85.00
18882;DHT22;9573;50.948;11.600;2022-12-18T12:54:11;5.20;86.00
18882;DHT22;9573;50.948;11.600;2022-12-18T12:56:45;5.30;86.50
18882;DHT22;9573;50.948;11.600;2022-12-18T12:59:20;5.30;86.90
18882;DHT22;9573;50.948;11.600;2022-12-18T13:01:54;5.30;87.40
18882;DHT22;9573;50.948;11.600;2022-12-18T13:04:31;5.10;88.80
18882;DHT22;9573;50.948;11.600;2022-12-18T13:07:06;4.80;88.80
18882;DHT22;9573;50.948;11.600;2022-12-18T13:10:26;4.60;90.00
18882;DHT22;9573;50.948;11.600;2022-12-18T13:12:59;4.20;90.50
18882;DHT22;9573;50.948;11.600;2022-12-18T13:15:33;3.80;91.00
18882;DHT22;9573;50.948;11.600;2022-12-18T13:18:20;3.40;91.60
18882;DHT22;9573;50.948;11.600;2022-12-18T13:20:50;3.00;92.40
18882;DHT22;9573;50.948;11.600;2022-12-18T13:23:33;2.60;92.80
18882;DHT22;9573;50.948;11.600;2022-12-18T13:26:31;2.30;93.40
18882;DHT22;9573;50.948;11.600;2022-12-18T13:29:00;2.00;94.00
18882;DHT22;9573;50.948;11.600;2022-12-18T13:32:01;1.70;94.60
18882;DHT22;9573;50.948;11.600;2022-12-18T13:34:30;1.40;95.20
18882;DHT22;9573;50.948;11.600;2022-12-18T13:37:39;1.20;95.90
18882;DHT22;9573;50.948;11.600;2022-12-18T13:43:31;0.70;96.70
18882;DHT22;9573;50.948;11.600;2022-12-18T13:46:06;0.60;97.30
18882;DHT22;9573;50.948;11.600;2022-12-18T13:48:56;0.40;97.50
18882;DHT22;9573;50.948;11.600;2022-12-18T13:51:26;0.30;98.00
18882;DHT22;9573;50.948;11.600;2022-12-18T13:53:56;0.20;98.70
18882;DHT22;9573;50.948;11.600;2022-12-18T13:56:27;0.00;99.30
18882;DHT22;9573;50.948;11.600;2022-12-18T13:59:17;-0.10;99.80
18882;DHT22;9573;50.948;11.600;2022-12-18T14:01:47;-0.30;99.90
18882;DHT22;9573;50.948;11.600;2022-12-18T14:04:23;-0.30;99.90
18882;DHT22;9573;50.948;11.600;2022-12-18T14:06:56;-0.50;99.90
18882;DHT22;9573;50.948;11.600;2022-12-18T14:09:27;-0.50;99.90
18882;DHT22;9573;50.948;11.600;2022-12-18T14:11:56;-0.80;99.90
18882;DHT22;9573;50.948;11.600;2022-12-18T14:14:41;-0.90;99.90
18882;DHT22;9573;50.948;11.600;2022-12-18T14:17:10;-0.90;99.90
18882;DHT22;9573;50.948;11.600;2022-12-18T14:19:42;-1.10;99.90
18882;DHT22;9573;50.948;11.600;2022-12-18T14:22:19;-1.20;99.90
18882;DHT22;9573;50.948;11.600;2022-12-18T14:24:47;-1.30;99.90
18882;DHT22;9573;50.948;11.600;2022-12-18T14:27:23;-1.40;99.90
18882;DHT22;9573;50.948;11.600;2022-12-18T14:29:51;-1.50;99.90
18882;DHT22;9573;50.948;11.600;2022-12-18T14:32:19;-1.60;99.90
18882;DHT22;9573;50.948;11.600;2022-12-18T14:34:49;-1.70;99.90
18882;DHT22;9573;50.948;11.600;2022-12-18T14:37:21;-1.80;99.90
18882;DHT22;9573;50.948;11.600;2022-12-18T14:39:53;-1.90;99.90
18882;DHT22;9573;50.948;11.600;2022-12-18T14:42:22;-1.00;99.90
18882;DHT22;9573;50.948;11.600;2022-12-18T14:47:59;-2.00;99.90
18882;DHT22;9573;50.948;11.600;2022-12-18T14:50:27;-2.10;99.90
18882;DHT22;9573;50.948;11.600;2022-12-18T14:52:56;-2.00;99.90
18882;DHT22;9573;50.948;11.600;2022-12-18T14:55:23;-2.00;99.90
18882;DHT22;9573;50.948;11.600;2022-12-18T14:57:52;-2.00;99.90
18882;DHT22;9573;50.948;11.600;2022-12-18T15:00:23;-2.10;99.90
18882;DHT22;9573;50.948;11.600;2022-12-18T15:02:54;-2.10;99.90
18882;DHT22;9573;50.948;11.600;2022-12-18T15:05:25;-2.20;99.90
18882;DHT22;9573;50.948;11.600;2022-12-18T15:07:57;-2.20;99.90
18882;DHT22;9573;50.948;11.600;2022-12-18T15:10:26;-2.30;99.90
18882;DHT22;9573;50.948;11.600;2022-12-18T15:13:08;-2.30;99.90
18882;DHT22;9573;50.948;11.600;2022-12-18T15:15:45;-2.20;99.90
18882;DHT22;9573;50.948;11.600;2022-12-18T15:18:14;-2.40;99.90
18882;DHT22;9573;50.948;11.600;2022-12-18T15:20:44;-2.50;99.90
18882;DHT22;9573;50.948;11.600;2022-12-18T15:23:17;-2.50;99.90
18882;DHT22;9573;50.948;11.600;2022-12-18T15:25:46;-2.50;99.90
18882;DHT22;9573;50.948;11.600;2022-12-18T15:28:21;-2.50;99.90
18882;DHT22;9573;50.948;11.600;2022-12-18T15:31:01;-2.60;99.90
18882;DHT22;9573;50.948;11.600;2022-12-18T15:33:32;-2.40;99.90
18882;DHT22;9573;50.948;11.600;2022-12-18T15:36:02;-2.60;99.90
18882;DHT22;9573;50.948;11.600;2022-12-18T15:38:32;-2.70;99.90
18882;DHT22;9573;50.948;11.600;2022-12-18T15:40:59;-2.90;99.90
18882;DHT22;9573;50.948;11.600;2022-12-18T15:43:27;-2.90;99.90
18882;DHT22;9573;50.948;11.600;2022-12-18T15:45:59;-2.90;99.90
18882;DHT22;9573;50.948;11.600;2022-12-18T15:48:26;-2.80;99.90
18882;DHT22;9573;50.948;11.600;2022-12-18T15:50:55;-3.00;99.90
18882;DHT22;9573;50.948;11.600;2022-12-18T15:53:24;-3.00;99.90
18882;DHT22;9573;50.948;11.600;2022-12-18T15:55:53;-2.90;99.90
18882;DHT22;9573;50.948;11.600;2022-12-18T15:58:38;-3.00;99.90
18882;DHT22;9573;50.948;11.600;2022-12-18T16:01:05;-3.00;99.90
18882;DHT22;9573;50.948;11.600;2022-12-18T16:03:34;-2.90;99.90
18882;DHT22;9573;50.948;11.600;2022-12-18T16:06:01;-3.00;99.90
18882;DHT22;9573;50.948;11.600;2022-12-18T16:08:28;-2.80;99.90
18882;DHT22;9573;50.948;11.600;2022-12-18T16:10:57;-2.60;99.90
18882;DHT22;9573;50.948;11.600;2022-12-18T16:13:24;-2.40;99.90
18882;DHT22;9573;50.948;11.600;2022-12-18T16:15:51;-2.30;99.90
18882;DHT22;9573;50.948;11.600;2022-12-18T16:18:19;-2.10;99.90
18882;DHT22;9573;50.948;11.600;2022-12-18T16:20:46;-2.00;99.90
18882;DHT22;9573;50.948;11.600;2022-12-18T16:23:13;-0.40;99.90
18882;DHT22;9573;50.948;11.600;2022-12-18T16:25:41;-1.70;99.90
18882;DHT22;9573;50.948;11.600;2022-12-18T16:28:09;-1.50;99.90
18882;DHT22;9573;50.948;11.600;2022-12-18T16:30:36;-1.40;99.90
18882;DHT22;9573;50.948;11.600;2022-12-18T16:33:03;-1.10;99.90
18882;DHT22;9573;50.948;11.600;2022-12-18T16:35:31;-1.20;99.90
18882;DHT22;9573;50.948;11.600;2022-12-18T16:37:59;-1.10;99.90
18882;DHT22;9573;50.948;11.600;2022-12-18T16:40:26;-1.00;99.90
18882;DHT22;9573;50.948;11.600;2022-12-18T16:42:53;-1.00;99.90
18882;DHT22;9573;50.948;11.600;2022-12-18T16:45:21;-1.00;99.90
18882;DHT22;9573;50.948;11.600;2022-12-18T16:47:49;-0.90;99.90
18882;DHT22;9573;50.948;11.600;2022-12-18T16:50:16;-0.90;99.90
18882;DHT22;9573;50.948;11.600;2022-12-18T16:52:43;-0.80;99.90
18882;DHT22;9573;50.948;11.600;2022-12-18T16:55:10;-0.80;99.90
18882;DHT22;9573;50.948;11.600;2022-12-18T16:57:37;-0.80;99.90
18882;DHT22;9573;50.948;11.600;2022-12-18T17:00:05;-0.80;99.90
18882;DHT22;9573;50.948;11.600;2022-12-18T17:02:35;-0.80;99.90
18882;DHT22;9573;50.948;11.600;2022-12-18T17:05:02;-0.70;99.90
18882;DHT22;9573;50.948;11.600;2022-12-18T17:07:29;-0.70;99.90
18882;DHT22;9573;50.948;11.600;2022-12-18T17:09:57;-0.70;99.90
18882;DHT22;9573;50.948;11.600;2022-12-18T17:12:24;-0.70;99.90
18882;DHT22;9573;50.948;11.600;2022-12-18T17:14:51;-0.60;99.90
18882;DHT22;9573;50.948;11.600;2022-12-18T17:17:18;-0.70;99.90
18882;DHT22;9573;50.948;11.600;2022-12-18T17:19:46;-0.70;99.90
18882;DHT22;9573;50.948;11.600;2022-12-18T17:22:13;-0.60;99.90
18882;DHT22;9573;50.948;11.600;2022-12-18T17:24:41;-0.70;99.90
18882;DHT22;9573;50.948;11.600;2022-12-18T17:27:08;-0.60;99.90
18882;DHT22;9573;50.948;11.600;2022-12-18T17:29:35;-0.70;99.90
18882;DHT22;9573;50.948;11.600;2022-12-18T17:32:02;-0.60;99.90
18882;DHT22;9573;50.948;11.600;2022-12-18T17:34:30;-0.60;99.90
18882;DHT22;9573;50.948;11.600;2022-12-18T17:36:58;-0.60;99.90
18882;DHT22;9573;50.948;11.600;2022-12-18T17:39:25;-0.50;99.90
18882;DHT22;9573;50.948;11.600;2022-12-18T17:41:53;-0.60;99.90
18882;DHT22;9573;50.948;11.600;2022-12-18T17:44:21;-0.60;99.90
18882;DHT22;9573;50.948;11.600;2022-12-18T17:46:48;-0.60;99.90
18882;DHT22;9573;50.948;11.600;2022-12-18T17:49:15;-0.60;99.90
18882;DHT22;9573;50.948;11.600;2022-12-18T17:51:42;-0.60;99.90
18882;DHT22;9573;50.948;11.600;2022-12-18T17:54:11;-0.60;99.90
18882;DHT22;9573;50.948;11.600;2022-12-18T17:56:38;-0.60;99.90
18882;DHT22;9573;50.948;11.600;2022-12-18T17:59:05;-0.50;99.90
18882;DHT22;9573;50.948;11.600;2022-12-18T18:01:33;-0.50;99.90
18882;DHT22;9573;50.948;11.600;2022-12-18T18:04:02;-0.50;99.90
18882;DHT22;9573;50.948;11.600;2022-12-18T18:06:29;-0.50;99.90
18882;DHT22;9573;50.948;11.600;2022-12-18T18:08:56;-0.50;99.90
18882;DHT22;9573;50.948;11.600;2022-12-18T18:11:24;-0.50;99.90
18882;DHT22;9573;50.948;11.600;2022-12-18T18:14:12;-0.50;99.90
18882;DHT22;9573;50.948;11.600;2022-12-18T18:16:41;-0.50;99.90
18882;DHT22;9573;50.948;11.600;2022-12-18T18:19:12;-0.50;99.90
18882;DHT22;9573;50.948;11.600;2022-12-18T18:21:42;-0.40;99.90
18882;DHT22;9573;50.948;11.600;2022-12-18T18:24:11;-0.40;99.90
18882;DHT22;9573;50.948;11.600;2022-12-18T18:26:40;-0.30;99.90
18882;DHT22;9573;50.948;11.600;2022-12-18T18:29:10;-0.30;99.90
18882;DHT22;9573;50.948;11.600;2022-12-18T18:31:39;-0.40;99.90
18882;DHT22;9573;50.948;11.600;2022-12-18T18:34:06;-0.30;99.90
18882;DHT22;9573;50.948;11.600;2022-12-18T18:36:33;-0.30;99.90
18882;DHT22;9573;50.948;11.600;2022-12-18T18:39:00;-0.30;99.90
18882;DHT22;9573;50.948;11.600;2022-12-18T18:41:28;-0.30;99.90
18882;DHT22;9573;50.948;11.600;2022-12-18T18:43:57;-0.30;99.90
18882;DHT22;9573;50.948;11.600;2022-12-18T18:46:25;-0.30;99.90
18882;DHT22;9573;50.948;11.600;2022-12-18T18:48:52;-0.30;99.90
18882;DHT22;9573;50.948;11.600;2022-12-18T18:51:21;-0.30;99.90
18882;DHT22;9573;50.948;11.600;2022-12-18T18:53:50;-0.30;99.90
18882;DHT22;9573;50.948;11.600;2022-12-18T18:56:23;-0.30;99.90
18882;DHT22;9573;50.948;11.600;2022-12-18T18:58:53;-0.30;99.90
18882;DHT22;9573;50.948;11.600;2022-12-18T19:01:22;-0.30;99.90
18882;DHT22;9573;50.948;11.600;2022-12-18T19:03:50;-0.30;99.90
18882;DHT22;9573;50.948;11.600;2022-12-18T19:06:21;-0.30;99.90
18882;DHT22;9573;50.948;11.600;2022-12-18T19:08:50;-0.30;99.90
18882;DHT22;9573;50.948;11.600;2022-12-18T19:11:17;-0.30;99.90
18882;DHT22;9573;50.948;11.600;2022-12-18T19:14:04;-0.20;99.90
18882;DHT22;9573;50.948;11.600;2022-12-18T19:16:34;-0.20;99.90
18882;DHT22;9573;50.948;11.600;2022-12-18T19:19:05;-0.20;99.90
18882;DHT22;9573;50.948;11.600;2022-12-18T19:21:32;-0.20;99.90
18882;DHT22;9573;50.948;11.600;2022-12-18T19:24:00;-0.10;99.90
18882;DHT22;9573;50.948;11.600;2022-12-18T19:26:28;-0.10;99.90
18882;DHT22;9573;50.948;11.600;2022-12-18T19:29:00;0.00;99.90
18882;DHT22;9573;50.948;11.600;2022-12-18T19:31:27;0.00;99.90
18882;DHT22;9573;50.948;11.600;2022-12-18T19:33:57;0.00;99.90
18882;DHT22;9573;50.948;11.600;2022-12-18T19:36:27;0.00;99.90
18882;DHT22;9573;50.948;11.600;2022-12-18T19:38:56;0.00;99.90
18882;DHT22;9573;50.948;11.600;2022-12-18T19:41:26;0.10;99.90
18882;DHT22;9573;50.948;11.600;2022-12-18T19:43:53;0.10;99.90
18882;DHT22;9573;50.948;11.600;2022-12-18T19:46:21;0.10;99.90
18882;DHT22;9573;50.948;11.600;2022-12-18T19:48:49;0.10;99.90
18882;DHT22;9573;50.948;11.600;2022-12-18T19:51:19;0.10;99.90
18882;DHT22;9573;50.948;11.600;2022-12-18T19:53:48;0.10;99.90
18882;DHT22;9573;50.948;11.600;2022-12-18T19:56:17;0.10;99.90
18882;DHT22;9573;50.948;11.600;2022-12-18T19:58:45;0.10;99.90
18882;DHT22;9573;50.948;11.600;2022-12-18T20:01:12;0.10;99.90
18882;DHT22;9573;50.948;11.600;2022-12-18T20:03:40;0.20;99.90
18882;DHT22;9573;50.948;11.600;2022-12-18T20:06:09;0.20;99.90
18882;DHT22;9573;50.948;11.600;2022-12-18T20:08:39;0.20;99.90
18882;DHT22;9573;50.948;11.600;2022-12-18T20:11:07;0.20;99.90
18882;DHT22;9573;50.948;11.600;2022-12-18T20:13:35;0.20;99.90
18882;DHT22;9573;50.948;11.600;2022-12-18T20:16:02;0.20;99.90
18882;DHT22;9573;50.948;11.600;2022-12-18T20:18:30;0.20;99.90
18882;DHT22;9573;50.948;11.600;2022-12-18T20:20:57;0.30;99.90
18882;DHT22;9573;50.948;11.600;2022-12-18T20:23:24;0.20;99.90
18882;DHT22;9573;50.948;11.600;2022-12-18T20:25:53;0.20;99.90
18882;DHT22;9573;50.948;11.600;2022-12-18T20:28:20;0.20;99.90
18882;DHT22;9573;50.948;11.600;2022-12-18T20:30:48;0.20;99.90
18882;DHT22;9573;50.948;11.600;2022-12-18T20:33:24;0.60;99.90
18882;DHT22;9573;50.948;11.600;2022-12-18T20:35:51;0.30;99.90
18882;DHT22;9573;50.948;11.600;2022-12-18T20:38:18;0.30;99.90
18882;DHT22;9573;50.948;11.600;2022-12-18T20:40:45;0.30;99.90
18882;DHT22;9573;50.948;11.600;2022-12-18T20:43:14;0.40;99.90
18882;DHT22;9573;50.948;11.600;2022-12-18T20:45:41;0.40;99.90
18882;DHT22;9573;50.948;11.600;2022-12-18T20:48:09;0.40;99.90
18882;DHT22;9573;50.948;11.600;2022-12-18T20:50:36;0.40;99.90
18882;DHT22;9573;50.948;11.600;2022-12-18T20:53:03;0.40;99.90
18882;DHT22;9573;50.948;11.600;2022-12-18T20:55:30;0.40;99.90
18882;DHT22;9573;50.948;11.600;2022-12-18T20:57:58;0.40;99.90
